Patricia Ann — WDE2845 — position and weather

sailwx.info

Track history (hours):
 
Tides and Currents Weather Stations Pressure Air Temp Water Temp Dewpoint Dewpoint Depression Visibility Wind Speed Wind Dir Waves Ship Positions

Patricia Ann

Owner: AmNav Maritime Services, Oakland, CA. More information available from US FCC via Universal Licensing System and Coast Guard Vessel Documentation Center.

Last reported at 2017-Aug-18 10:30 UTC. Time now 2017-Aug-18 10:52 UTC.
Position N 37°49' W 122°22'.

Length 24 m; draft 4.9 m.

Type: Tug. MMSI: 367330510.

Date/timePositionNaut miles runAvg speedWind from/ knotsBaromVisibWave heightAir tempDewpointWater temp
2017-Aug-18 10:30N 37°49' W 122°22'0 0.0
2017-Aug-18 10:00N 37°49' W 122°22'0 0.0
2017-Aug-18 09:30N 37°49' W 122°22'0 0.0
2017-Aug-18 09:00N 37°49' W 122°22'0 0.0
2017-Aug-18 08:30N 37°49' W 122°22'2 4.7
2017-Aug-18 08:00N 37°51' W 122°23'611.8
2017-Aug-18 07:30N 37°57' W 122°26'710.9
2017-Aug-18 06:53N 38°02' W 122°21'1 0.0
2017-Aug-17 00:14N 38°02' W 122°22'611.8
2017-Aug-16 23:44N 37°57' W 122°26'311.2
2017-Aug-16 23:31N 37°55' W 122°24'2 3.4
2017-Aug-16 23:00N 37°55' W 122°22'0 0.9
2017-Aug-16 22:30N 37°54' W 122°22'9 7.1
2017-Aug-16 21:17N 38°03' W 122°19'5 0.2
2017-Aug-15 22:58N 38°03' W 122°13'8 0.4
2017-Aug-15 04:18N 38°02' W 122°22'6 8.3
2017-Aug-15 03:37N 37°57' W 122°26'1 8.7
2017-Aug-15 03:30N 37°56' W 122°25'3 6.5
2017-Aug-15 03:00N 37°54' W 122°22'0 0.0
2017-Aug-15 02:30N 37°54' W 122°22'0 0.8
2017-Aug-15 02:00N 37°54' W 122°22'3 5.5
2017-Aug-15 01:31N 37°55' W 122°25'2 3.9
2017-Aug-15 01:00N 37°53' W 122°25'2 4.1
2017-Aug-15 00:30N 37°51' W 122°23'4 7.9
2017-Aug-15 00:00N 37°49' W 122°20'1 1.6
2017-Aug-14 23:30N 37°49' W 122°19'2 3.7
2017-Aug-14 23:01N 37°48' W 122°18'0 0.1
2017-Aug-14 22:31N 37°48' W 122°18'0 0.6
2017-Aug-14 22:01N 37°48' W 122°18'3 5.7
2017-Aug-14 21:30N 37°48' W 122°22'3 5.1
2017-Aug-14 21:00N 37°49' W 122°19'0 0.4
2017-Aug-14 20:30N 37°49' W 122°19'0 0.0
2017-Aug-14 20:00N 37°49' W 122°19'0 0.0
2017-Aug-14 19:30N 37°49' W 122°19'0 0.0
2017-Aug-14 19:00N 37°49' W 122°19'0 0.0
2017-Aug-14 18:30N 37°49' W 122°19'0 0.0
2017-Aug-14 18:00N 37°49' W 122°19'0 0.0
2017-Aug-14 17:30N 37°49' W 122°19'0 0.0
2017-Aug-14 17:00N 37°49' W 122°19'0 0.0
2017-Aug-14 16:30N 37°49' W 122°19'0 0.0
2017-Aug-14 16:00N 37°49' W 122°19'0 0.0
2017-Aug-14 15:30N 37°49' W 122°19'0 0.0
2017-Aug-14 15:00N 37°49' W 122°19'0 0.0
2017-Aug-14 14:30N 37°49' W 122°19'0 0.0
2017-Aug-14 14:00N 37°49' W 122°19'0 0.0
2017-Aug-14 13:30N 37°49' W 122°19'0 0.0
2017-Aug-14 13:00N 37°49' W 122°19'0 0.0
2017-Aug-14 12:30N 37°49' W 122°19'0 0.0
2017-Aug-14 12:00N 37°49' W 122°19'0 0.0
2017-Aug-14 11:30N 37°49' W 122°19'2 3.0
2017-Aug-14 11:00N 37°49' W 122°20'1 1.9
2017-Aug-14 10:30N 37°48' W 122°20'2 4.3
2017-Aug-14 10:01N 37°48' W 122°22'3 5.9
2017-Aug-14 09:30N 37°49' W 122°19'0 0.0
2017-Aug-14 09:00N 37°49' W 122°19'0 0.0
2017-Aug-14 08:30N 37°49' W 122°19'0 0.0
2017-Aug-14 08:00N 37°49' W 122°19'0 0.0
2017-Aug-14 07:30N 37°49' W 122°19'0 0.0
2017-Aug-14 07:00N 37°49' W 122°19'0 0.0
2017-Aug-14 06:30N 37°49' W 122°19'0 0.0
2017-Aug-14 06:00N 37°49' W 122°19'0 0.0
2017-Aug-14 05:30N 37°49' W 122°19'0 0.0
2017-Aug-14 05:00N 37°49' W 122°19'0 0.0
2017-Aug-14 04:30N 37°49' W 122°19'0 0.0
2017-Aug-14 04:00N 37°49' W 122°19'0 0.0
2017-Aug-14 03:30N 37°49' W 122°19'0 0.0
2017-Aug-14 03:00N 37°49' W 122°19'0 0.0
2017-Aug-14 02:30N 37°49' W 122°19'0 0.0
2017-Aug-14 02:00N 37°49' W 122°19'0 0.0
2017-Aug-14 01:30N 37°49' W 122°19'0 0.0
2017-Aug-14 01:00N 37°49' W 122°19'0 0.0
2017-Aug-14 00:30N 37°49' W 122°19'0 0.0
2017-Aug-14 00:00N 37°49' W 122°19'0 0.0
2017-Aug-13 23:29N 37°49' W 122°19'2 3.3
2017-Aug-13 23:00N 37°48' W 122°20'1 1.6
2017-Aug-13 22:31N 37°49' W 122°20'1 2.6
2017-Aug-13 22:01N 37°48' W 122°21'2 3.7
2017-Aug-13 21:30N 37°47' W 122°22'2 4.3
2017-Aug-13 21:01N 37°48' W 122°21'2 3.5
2017-Aug-13 20:30N 37°49' W 122°19'0 0.0
2017-Aug-13 20:00N 37°49' W 122°19'0 0.0
2017-Aug-13 19:30N 37°49' W 122°19'0 0.0
2017-Aug-13 19:00N 37°49' W 122°19'0 0.0
2017-Aug-13 18:30N 37°49' W 122°19'0 0.0
2017-Aug-13 18:00N 37°49' W 122°19'0 0.0
2017-Aug-13 17:30N 37°49' W 122°19'0 0.0
2017-Aug-13 17:00N 37°49' W 122°19'0 0.0
2017-Aug-13 16:30N 37°49' W 122°19'0 0.0
2017-Aug-13 16:00N 37°49' W 122°19'0 0.0
2017-Aug-13 15:30N 37°49' W 122°19'0 0.0
2017-Aug-13 15:00N 37°49' W 122°19'0 0.0
2017-Aug-13 14:30N 37°49' W 122°19'0 0.0
2017-Aug-13 14:00N 37°49' W 122°19'0 0.0
2017-Aug-13 13:30N 37°49' W 122°19'0 0.0
2017-Aug-13 13:00N 37°49' W 122°19'0 0.0
2017-Aug-13 12:30N 37°49' W 122°19'0 0.0
2017-Aug-13 12:00N 37°49' W 122°19'0 0.0
2017-Aug-13 11:30N 37°49' W 122°19'0 0.0
2017-Aug-13 11:00N 37°49' W 122°19'0 0.0
2017-Aug-13 10:30N 37°49' W 122°19'0 0.0
2017-Aug-13 10:00N 37°49' W 122°19'0 0.0
2017-Aug-13 09:30N 37°49' W 122°19'0 0.0
2017-Aug-13 09:00N 37°49' W 122°19'0 0.0
2017-Aug-13 08:30N 37°49' W 122°19'0 0.0
2017-Aug-13 08:00N 37°49' W 122°19'0 0.0
2017-Aug-13 07:30N 37°49' W 122°19'0 0.0
2017-Aug-13 07:00N 37°49' W 122°19'0 0.0
2017-Aug-13 06:30N 37°49' W 122°19'0 0.0
2017-Aug-13 06:00N 37°49' W 122°19'0 0.0
2017-Aug-13 05:30N 37°49' W 122°19'0 0.0
2017-Aug-13 05:00N 37°49' W 122°19'0 0.0
2017-Aug-13 04:30N 37°49' W 122°19'0 0.0
2017-Aug-13 04:00N 37°49' W 122°19'0 0.0
2017-Aug-13 03:30N 37°49' W 122°19'0 0.0
2017-Aug-13 03:00N 37°49' W 122°19'0 0.0
2017-Aug-13 02:30N 37°49' W 122°19'0 0.0
2017-Aug-13 02:00N 37°49' W 122°19'0 0.0
2017-Aug-13 01:30N 37°49' W 122°19'0 0.0
2017-Aug-13 01:00N 37°49' W 122°19'2 3.5
2017-Aug-13 00:30N 37°48' W 122°20'2 4.5
2017-Aug-13 00:01N 37°48' W 122°17'1 1.2
2017-Aug-12 23:31N 37°48' W 122°18'1 1.0
2017-Aug-12 23:01N 37°48' W 122°19'0 0.1
2017-Aug-12 22:31N 37°48' W 122°19'0 0.0
2017-Aug-12 22:01N 37°48' W 122°19'2 3.2
2017-Aug-12 21:30N 37°49' W 122°19'0 0.0
2017-Aug-12 21:00N 37°49' W 122°19'0 0.0
2017-Aug-12 20:30N 37°49' W 122°19'0 0.0
2017-Aug-12 20:00N 37°49' W 122°19'0 0.0
2017-Aug-12 19:30N 37°49' W 122°19'0 0.0
2017-Aug-12 19:00N 37°49' W 122°19'0 0.9
2017-Aug-12 18:30N 37°49' W 122°19'4 8.1
2017-Aug-12 18:00N 37°51' W 122°23'4 7.3
2017-Aug-12 17:26N 37°55' W 122°25'0 0.2
2017-Aug-12 16:58N 37°55' W 122°25'2 3.5
2017-Aug-12 16:30N 37°54' W 122°25'4 9.1
2017-Aug-12 16:00N 37°50' W 122°22'3 5.3
2017-Aug-12 15:30N 37°49' W 122°19'0 0.0
2017-Aug-12 15:00N 37°49' W 122°19'0 0.0
2017-Aug-12 14:30N 37°49' W 122°19'0 0.7
2017-Aug-12 14:00N 37°49' W 122°19'1 2.5
2017-Aug-12 13:31N 37°48' W 122°19'1 1.2
2017-Aug-12 13:01N 37°48' W 122°20'2 3.3
2017-Aug-12 12:31N 37°48' W 122°22'3 5.7
2017-Aug-12 12:00N 37°49' W 122°19'0 0.0
2017-Aug-12 11:30N 37°49' W 122°19'0 0.0
2017-Aug-12 11:00N 37°49' W 122°19'0 0.0
2017-Aug-12 10:30N 37°49' W 122°19'0 0.0
2017-Aug-12 10:00N 37°49' W 122°19'0 0.0
2017-Aug-12 09:30N 37°49' W 122°19'0 0.0
2017-Aug-12 09:00N 37°49' W 122°19'0 0.0
2017-Aug-12 08:30N 37°49' W 122°19'0 0.0
2017-Aug-12 08:00N 37°49' W 122°19'0 0.0
2017-Aug-12 07:31N 37°49' W 122°19'0 0.0
2017-Aug-12 07:01N 37°49' W 122°19'0 0.0
2017-Aug-12 06:30N 37°49' W 122°19'0 0.0
2017-Aug-12 06:00N 37°49' W 122°19'0 0.0
2017-Aug-12 05:30N 37°49' W 122°19'0 0.0
2017-Aug-12 05:00N 37°49' W 122°19'0 0.0
2017-Aug-12 04:30N 37°49' W 122°19'0 0.0
2017-Aug-12 04:00N 37°49' W 122°19'0 0.0
2017-Aug-12 03:30N 37°49' W 122°19'0 0.0
2017-Aug-12 03:00N 37°49' W 122°19'0 0.0
2017-Aug-12 02:30N 37°49' W 122°19'0 0.4
2017-Aug-12 02:01N 37°49' W 122°19'3 6.4
2017-Aug-12 01:30N 37°51' W 122°23'4 8.0
2017-Aug-12 01:00N 37°54' W 122°24'2 3.1
2017-Aug-12 00:25N 37°55' W 122°22'0 0.0
2017-Aug-11 23:59N 37°55' W 122°22'0 1.0
2017-Aug-11 23:30N 37°55' W 122°22'1 1.2
2017-Aug-11 23:00N 37°54' W 122°22'2 4.8
2017-Aug-11 22:29N 37°55' W 122°25'2 4.1
2017-Aug-11 22:01N 37°53' W 122°25'3 4.3
2017-Aug-11 21:23N 37°56' W 122°25'0 0.4
2017-Aug-11 20:53N 37°56' W 122°25'0 0.1
2017-Aug-11 19:22N 37°55' W 122°25'2 5.3
2017-Aug-11 18:59N 37°53' W 122°25'4 8.9
2017-Aug-11 18:31N 37°50' W 122°22'2 4.9
2017-Aug-11 18:00N 37°49' W 122°19'0 0.0
2017-Aug-11 17:30N 37°49' W 122°19'0 0.0
2017-Aug-11 17:01N 37°49' W 122°19'0 0.0
2017-Aug-11 16:31N 37°49' W 122°19'0 0.0
2017-Aug-11 16:00N 37°49' W 122°19'0 0.0
2017-Aug-11 15:31N 37°49' W 122°19'0 0.0
2017-Aug-11 15:01N 37°49' W 122°19'0 0.0
2017-Aug-11 14:00N 37°49' W 122°19'0 0.0
2017-Aug-11 13:31N 37°49' W 122°19'0 0.0
2017-Aug-11 13:01N 37°49' W 122°19'0 0.0
2017-Aug-11 12:30N 37°49' W 122°19'0 0.0
2017-Aug-11 12:00N 37°49' W 122°19'0 0.0
2017-Aug-11 11:30N 37°49' W 122°19'2 3.1
2017-Aug-11 11:01N 37°48' W 122°19'1 2.2
2017-Aug-11 10:30N 37°48' W 122°21'2 3.6
2017-Aug-11 10:00N 37°49' W 122°19'0 0.0
2017-Aug-11 09:30N 37°49' W 122°19'0 0.0
2017-Aug-11 09:00N 37°49' W 122°19'0 0.0
2017-Aug-11 08:30N 37°49' W 122°19'0 0.0
2017-Aug-11 08:01N 37°49' W 122°19'0 0.0
2017-Aug-11 07:31N 37°49' W 122°19'0 0.0
2017-Aug-11 07:00N 37°49' W 122°19'0 0.0
2017-Aug-11 06:31N 37°49' W 122°19'0 0.0
2017-Aug-11 06:00N 37°49' W 122°19'0 0.0
2017-Aug-11 05:30N 37°49' W 122°19'0 0.0
2017-Aug-11 05:00N 37°49' W 122°19'0 0.0
2017-Aug-11 04:30N 37°49' W 122°19'0 0.0
2017-Aug-11 04:00N 37°49' W 122°19'0 0.0
2017-Aug-11 03:30N 37°49' W 122°19'0 0.0
2017-Aug-11 03:00N 37°49' W 122°19'0 0.0
2017-Aug-11 02:30N 37°49' W 122°19'0 0.0
2017-Aug-11 02:01N 37°49' W 122°19'0 0.0
2017-Aug-11 01:31N 37°49' W 122°19'3 5.8
2017-Aug-11 01:00N 37°47' W 122°21'3 5.4
2017-Aug-11 00:30N 37°45' W 122°23'0 0.0
2017-Aug-11 00:00N 37°45' W 122°23'0 0.0
2017-Aug-10 23:31N 37°45' W 122°23'0 0.0
2017-Aug-10 23:00N 37°45' W 122°23'0 0.0
2017-Aug-10 22:31N 37°45' W 122°23'0 0.0
2017-Aug-10 22:01N 37°45' W 122°23'0 0.0
2017-Aug-10 21:31N 37°45' W 122°23'0 0.8
2017-Aug-10 21:00N 37°45' W 122°22'2 4.1
2017-Aug-10 20:31N 37°47' W 122°21'2 3.1
2017-Aug-10 20:01N 37°46' W 122°19'0 0.8
2017-Aug-10 19:30N 37°46' W 122°18'0 0.0
2017-Aug-10 19:00N 37°46' W 122°18'0 0.3
2017-Aug-10 18:31N 37°46' W 122°18'0 0.0
2017-Aug-10 18:01N 37°46' W 122°18'0 0.0
2017-Aug-10 17:30N 37°46' W 122°18'0 0.0
2017-Aug-10 17:00N 37°46' W 122°18'0 0.2
2017-Aug-10 16:30N 37°47' W 122°18'0 0.3
2017-Aug-10 16:01N 37°46' W 122°18'2 4.8
2017-Aug-10 15:30N 37°49' W 122°20'0 0.3
2017-Aug-10 15:00N 37°49' W 122°19'1 2.0
2017-Aug-10 14:31N 37°48' W 122°21'2 3.0
2017-Aug-10 14:00N 37°49' W 122°23'1 2.4
2017-Aug-10 13:30N 37°48' W 122°21'0 1.0
2017-Aug-10 13:01N 37°48' W 122°21'0 0.0
2017-Aug-10 12:30N 37°48' W 122°21'1 2.1
2017-Aug-10 12:01N 37°48' W 122°19'1 2.2
2017-Aug-10 11:30N 37°49' W 122°19'1 1.1
2017-Aug-10 11:00N 37°49' W 122°19'0 0.0
2017-Aug-10 10:30N 37°49' W 122°19'0 0.0
2017-Aug-10 10:00N 37°49' W 122°19'0 0.0
2017-Aug-10 09:30N 37°49' W 122°19'0 0.0
2017-Aug-10 09:00N 37°49' W 122°19'0 0.0
2017-Aug-10 08:30N 37°49' W 122°19'0 0.0
2017-Aug-10 08:00N 37°49' W 122°19'0 0.0
2017-Aug-10 07:30N 37°49' W 122°19'0 0.0
2017-Aug-10 07:00N 37°49' W 122°19'0 0.0
2017-Aug-10 06:30N 37°49' W 122°19'0 0.0
2017-Aug-10 06:00N 37°49' W 122°19'0 0.0
2017-Aug-10 05:30N 37°49' W 122°19'0 0.0
2017-Aug-10 05:00N 37°49' W 122°19'0 0.0
2017-Aug-10 04:30N 37°49' W 122°19'0 0.0
2017-Aug-10 04:00N 37°49' W 122°19'0 0.0
2017-Aug-10 03:30N 37°49' W 122°19'1 1.9
2017-Aug-10 03:01N 37°49' W 122°20'1 2.8
2017-Aug-10 02:31N 37°48' W 122°19'1 1.1
2017-Aug-10 02:00N 37°48' W 122°18'0 0.1
2017-Aug-10 01:30N 37°48' W 122°18'2 3.9
2017-Aug-10 01:00N 37°48' W 122°20'1 1.7
2017-Aug-10 00:31N 37°48' W 122°19'1 2.5
2017-Aug-10 00:01N 37°48' W 122°18'1 1.3
2017-Aug-09 23:31N 37°48' W 122°19'3 5.8
2017-Aug-09 23:00N 37°48' W 122°22'0 0.7
2017-Aug-09 22:31N 37°48' W 122°22'3 6.0
2017-Aug-09 22:01N 37°49' W 122°19'0 0.0
2017-Aug-09 21:30N 37°49' W 122°19'0 0.0
2017-Aug-09 21:00N 37°49' W 122°19'0 0.0
2017-Aug-09 20:30N 37°49' W 122°19'0 0.0
2017-Aug-09 20:00N 37°49' W 122°19'0 0.0
2017-Aug-09 19:30N 37°49' W 122°19'0 0.0
2017-Aug-09 19:00N 37°49' W 122°19'0 0.0
2017-Aug-09 18:30N 37°49' W 122°19'0 0.0
2017-Aug-09 18:00N 37°49' W 122°19'0 0.0
2017-Aug-09 17:30N 37°49' W 122°19'0 0.0
2017-Aug-09 17:00N 37°49' W 122°19'0 0.0
2017-Aug-09 16:30N 37°49' W 122°19'0 0.0
2017-Aug-09 16:00N 37°49' W 122°19'0 0.0
2017-Aug-09 15:30N 37°49' W 122°19'0 0.0
2017-Aug-09 15:00N 37°49' W 122°19'0 0.0
2017-Aug-09 14:30N 37°49' W 122°19'0 0.0
2017-Aug-09 14:00N 37°49' W 122°19'0 0.0
2017-Aug-09 13:30N 37°49' W 122°19'0 0.0
2017-Aug-09 13:00N 37°49' W 122°19'0 0.0
2017-Aug-09 12:30N 37°49' W 122°19'0 0.0
2017-Aug-09 12:00N 37°49' W 122°19'0 0.0
2017-Aug-09 11:31N 37°49' W 122°19'0 0.0
2017-Aug-09 11:00N 37°49' W 122°19'0 0.0
2017-Aug-09 10:30N 37°49' W 122°19'0 0.0
2017-Aug-09 10:00N 37°49' W 122°19'0 0.0
2017-Aug-09 09:31N 37°49' W 122°19'0 0.0
2017-Aug-09 09:00N 37°49' W 122°19'0 0.0
2017-Aug-09 08:30N 37°49' W 122°19'0 0.0
2017-Aug-09 08:01N 37°49' W 122°19'0 0.0
2017-Aug-09 07:31N 37°49' W 122°19'0 0.0
2017-Aug-09 07:00N 37°49' W 122°19'0 0.0
2017-Aug-09 06:30N 37°49' W 122°19'0 0.0
2017-Aug-09 06:00N 37°49' W 122°19'0 0.0
2017-Aug-09 05:30N 37°49' W 122°19'0 0.0
2017-Aug-09 05:01N 37°49' W 122°19'0 0.0
2017-Aug-09 04:30N 37°49' W 122°19'0 0.0
2017-Aug-09 04:00N 37°49' W 122°19'2 4.4
2017-Aug-09 03:30N 37°49' W 122°22'510.6
2017-Aug-09 03:00N 37°54' W 122°25'2 4.9
2017-Aug-09 02:30N 37°54' W 122°22'1 1.6
2017-Aug-09 02:00N 37°54' W 122°23'2 4.1
2017-Aug-09 01:30N 37°53' W 122°25'2 3.6
2017-Aug-09 01:00N 37°54' W 122°23'0 0.0
2017-Aug-09 00:30N 37°54' W 122°23'1 2.5
2017-Aug-09 00:00N 37°55' W 122°22'1 1.0
2017-Aug-08 23:26N 37°54' W 122°22'3 5.8
2017-Aug-08 22:55N 37°55' W 122°25'2 6.0
2017-Aug-08 22:30N 37°53' W 122°25'2 4.2
2017-Aug-08 22:00N 37°51' W 122°23'4 7.7
2017-Aug-08 21:30N 37°49' W 122°19'1 1.5
2017-Aug-08 21:00N 37°49' W 122°19'2 3.6
2017-Aug-08 20:31N 37°48' W 122°21'2 4.4
2017-Aug-08 20:01N 37°48' W 122°18'1 2.7
2017-Aug-08 19:31N 37°48' W 122°20'2 3.4
2017-Aug-08 19:00N 37°48' W 122°22'1 2.1
2017-Aug-08 18:30N 37°48' W 122°21'2 4.2
2017-Aug-08 18:00N 37°48' W 122°18'0 0.4
2017-Aug-08 17:30N 37°48' W 122°18'0 0.0
2017-Aug-08 17:00N 37°48' W 122°18'1 2.7
2017-Aug-08 16:30N 37°48' W 122°19'2 3.3
2017-Aug-08 16:00N 37°49' W 122°19'0 0.0
2017-Aug-08 15:30N 37°49' W 122°19'0 0.0
2017-Aug-08 15:00N 37°49' W 122°19'0 0.0
2017-Aug-08 14:30N 37°49' W 122°19'0 0.0
2017-Aug-08 14:00N 37°49' W 122°19'0 0.0
2017-Aug-08 13:30N 37°49' W 122°19'0 0.0
2017-Aug-08 13:00N 37°49' W 122°19'0 0.0
2017-Aug-08 12:30N 37°49' W 122°19'0 0.0
2017-Aug-08 12:00N 37°49' W 122°19'0 0.0
2017-Aug-08 11:30N 37°49' W 122°19'0 0.0
2017-Aug-08 11:00N 37°49' W 122°19'0 0.0
2017-Aug-08 10:31N 37°49' W 122°19'  
Track history (hours):
 
Tides and Currents Weather Stations Pressure Air Temp Water Temp Dewpoint Dewpoint Depression Visibility Wind Speed Wind Dir Waves Ship Positions

Patricia Ann

Owner: AmNav Maritime Services, Oakland, CA. More information available from US FCC via Universal Licensing System and Coast Guard Vessel Documentation Center.

Last reported at 2017-Aug-18 10:30 UTC. Time now 2017-Aug-18 10:52 UTC.
Position N 37°49' W 122°22'.

Length 24 m; draft 4.9 m.

Type: Tug. MMSI: 367330510.

Date/timePositionNaut miles runAvg speedWind from/ knotsBaromVisibWave heightAir tempDewpointWater temp
2017-Aug-18 10:30N 37°49' W 122°22'0 0.0
2017-Aug-18 10:00N 37°49' W 122°22'0 0.0
2017-Aug-18 09:30N 37°49' W 122°22'0 0.0
2017-Aug-18 09:00N 37°49' W 122°22'0 0.0
2017-Aug-18 08:30N 37°49' W 122°22'2 4.7
2017-Aug-18 08:00N 37°51' W 122°23'611.8
2017-Aug-18 07:30N 37°57' W 122°26'710.9
2017-Aug-18 06:53N 38°02' W 122°21'1 0.0
2017-Aug-17 00:14N 38°02' W 122°22'611.8
2017-Aug-16 23:44N 37°57' W 122°26'311.2
2017-Aug-16 23:31N 37°55' W 122°24'2 3.4
2017-Aug-16 23:00N 37°55' W 122°22'0 0.9
2017-Aug-16 22:30N 37°54' W 122°22'9 7.1
2017-Aug-16 21:17N 38°03' W 122°19'5 0.2
2017-Aug-15 22:58N 38°03' W 122°13'8 0.4
2017-Aug-15 04:18N 38°02' W 122°22'6 8.3
2017-Aug-15 03:37N 37°57' W 122°26'1 8.7
2017-Aug-15 03:30N 37°56' W 122°25'3 6.5
2017-Aug-15 03:00N 37°54' W 122°22'0 0.0
2017-Aug-15 02:30N 37°54' W 122°22'0 0.8
2017-Aug-15 02:00N 37°54' W 122°22'3 5.5
2017-Aug-15 01:31N 37°55' W 122°25'2 3.9
2017-Aug-15 01:00N 37°53' W 122°25'2 4.1
2017-Aug-15 00:30N 37°51' W 122°23'4 7.9
2017-Aug-15 00:00N 37°49' W 122°20'1 1.6
2017-Aug-14 23:30N 37°49' W 122°19'2 3.7
2017-Aug-14 23:01N 37°48' W 122°18'0 0.1
2017-Aug-14 22:31N 37°48' W 122°18'0 0.6
2017-Aug-14 22:01N 37°48' W 122°18'3 5.7
2017-Aug-14 21:30N 37°48' W 122°22'3 5.1
2017-Aug-14 21:00N 37°49' W 122°19'0 0.4
2017-Aug-14 20:30N 37°49' W 122°19'0 0.0
2017-Aug-14 20:00N 37°49' W 122°19'0 0.0
2017-Aug-14 19:30N 37°49' W 122°19'0 0.0
2017-Aug-14 19:00N 37°49' W 122°19'0 0.0
2017-Aug-14 18:30N 37°49' W 122°19'0 0.0
2017-Aug-14 18:00N 37°49' W 122°19'0 0.0
2017-Aug-14 17:30N 37°49' W 122°19'0 0.0
2017-Aug-14 17:00N 37°49' W 122°19'0 0.0
2017-Aug-14 16:30N 37°49' W 122°19'0 0.0
2017-Aug-14 16:00N 37°49' W 122°19'0 0.0
2017-Aug-14 15:30N 37°49' W 122°19'0 0.0
2017-Aug-14 15:00N 37°49' W 122°19'0 0.0
2017-Aug-14 14:30N 37°49' W 122°19'0 0.0
2017-Aug-14 14:00N 37°49' W 122°19'0 0.0
2017-Aug-14 13:30N 37°49' W 122°19'0 0.0
2017-Aug-14 13:00N 37°49' W 122°19'0 0.0
2017-Aug-14 12:30N 37°49' W 122°19'0 0.0
2017-Aug-14 12:00N 37°49' W 122°19'0 0.0
2017-Aug-14 11:30N 37°49' W 122°19'2 3.0
2017-Aug-14 11:00N 37°49' W 122°20'1 1.9
2017-Aug-14 10:30N 37°48' W 122°20'2 4.3
2017-Aug-14 10:01N 37°48' W 122°22'3 5.9
2017-Aug-14 09:30N 37°49' W 122°19'0 0.0
2017-Aug-14 09:00N 37°49' W 122°19'0 0.0
2017-Aug-14 08:30N 37°49' W 122°19'0 0.0
2017-Aug-14 08:00N 37°49' W 122°19'0 0.0
2017-Aug-14 07:30N 37°49' W 122°19'0 0.0
2017-Aug-14 07:00N 37°49' W 122°19'0 0.0
2017-Aug-14 06:30N 37°49' W 122°19'0 0.0
2017-Aug-14 06:00N 37°49' W 122°19'0 0.0
2017-Aug-14 05:30N 37°49' W 122°19'0 0.0
2017-Aug-14 05:00N 37°49' W 122°19'0 0.0
2017-Aug-14 04:30N 37°49' W 122°19'0 0.0
2017-Aug-14 04:00N 37°49' W 122°19'0 0.0
2017-Aug-14 03:30N 37°49' W 122°19'0 0.0
2017-Aug-14 03:00N 37°49' W 122°19'0 0.0
2017-Aug-14 02:30N 37°49' W 122°19'0 0.0
2017-Aug-14 02:00N 37°49' W 122°19'0 0.0
2017-Aug-14 01:30N 37°49' W 122°19'0 0.0
2017-Aug-14 01:00N 37°49' W 122°19'0 0.0
2017-Aug-14 00:30N 37°49' W 122°19'0 0.0
2017-Aug-14 00:00N 37°49' W 122°19'0 0.0
2017-Aug-13 23:29N 37°49' W 122°19'2 3.3
2017-Aug-13 23:00N 37°48' W 122°20'1 1.6
2017-Aug-13 22:31N 37°49' W 122°20'1 2.6
2017-Aug-13 22:01N 37°48' W 122°21'2 3.7
2017-Aug-13 21:30N 37°47' W 122°22'2 4.3
2017-Aug-13 21:01N 37°48' W 122°21'2 3.5
2017-Aug-13 20:30N 37°49' W 122°19'0 0.0
2017-Aug-13 20:00N 37°49' W 122°19'0 0.0
2017-Aug-13 19:30N 37°49' W 122°19'0 0.0
2017-Aug-13 19:00N 37°49' W 122°19'0 0.0
2017-Aug-13 18:30N 37°49' W 122°19'0 0.0
2017-Aug-13 18:00N 37°49' W 122°19'0 0.0
2017-Aug-13 17:30N 37°49' W 122°19'0 0.0
2017-Aug-13 17:00N 37°49' W 122°19'0 0.0
2017-Aug-13 16:30N 37°49' W 122°19'0 0.0
2017-Aug-13 16:00N 37°49' W 122°19'0 0.0
2017-Aug-13 15:30N 37°49' W 122°19'0 0.0
2017-Aug-13 15:00N 37°49' W 122°19'0 0.0
2017-Aug-13 14:30N 37°49' W 122°19'0 0.0
2017-Aug-13 14:00N 37°49' W 122°19'0 0.0
2017-Aug-13 13:30N 37°49' W 122°19'0 0.0
2017-Aug-13 13:00N 37°49' W 122°19'0 0.0
2017-Aug-13 12:30N 37°49' W 122°19'0 0.0
2017-Aug-13 12:00N 37°49' W 122°19'0 0.0
2017-Aug-13 11:30N 37°49' W 122°19'0 0.0
2017-Aug-13 11:00N 37°49' W 122°19'0 0.0
2017-Aug-13 10:30N 37°49' W 122°19'0 0.0
2017-Aug-13 10:00N 37°49' W 122°19'0 0.0
2017-Aug-13 09:30N 37°49' W 122°19'0 0.0
2017-Aug-13 09:00N 37°49' W 122°19'0 0.0
2017-Aug-13 08:30N 37°49' W 122°19'0 0.0
2017-Aug-13 08:00N 37°49' W 122°19'0 0.0
2017-Aug-13 07:30N 37°49' W 122°19'0 0.0
2017-Aug-13 07:00N 37°49' W 122°19'0 0.0
2017-Aug-13 06:30N 37°49' W 122°19'0 0.0
2017-Aug-13 06:00N 37°49' W 122°19'0 0.0
2017-Aug-13 05:30N 37°49' W 122°19'0 0.0
2017-Aug-13 05:00N 37°49' W 122°19'0 0.0
2017-Aug-13 04:30N 37°49' W 122°19'0 0.0
2017-Aug-13 04:00N 37°49' W 122°19'0 0.0
2017-Aug-13 03:30N 37°49' W 122°19'0 0.0
2017-Aug-13 03:00N 37°49' W 122°19'0 0.0
2017-Aug-13 02:30N 37°49' W 122°19'0 0.0
2017-Aug-13 02:00N 37°49' W 122°19'0 0.0
2017-Aug-13 01:30N 37°49' W 122°19'0 0.0
2017-Aug-13 01:00N 37°49' W 122°19'2 3.5
2017-Aug-13 00:30N 37°48' W 122°20'2 4.5
2017-Aug-13 00:01N 37°48' W 122°17'1 1.2
2017-Aug-12 23:31N 37°48' W 122°18'1 1.0
2017-Aug-12 23:01N 37°48' W 122°19'0 0.1
2017-Aug-12 22:31N 37°48' W 122°19'0 0.0
2017-Aug-12 22:01N 37°48' W 122°19'2 3.2
2017-Aug-12 21:30N 37°49' W 122°19'0 0.0
2017-Aug-12 21:00N 37°49' W 122°19'0 0.0
2017-Aug-12 20:30N 37°49' W 122°19'0 0.0
2017-Aug-12 20:00N 37°49' W 122°19'0 0.0
2017-Aug-12 19:30N 37°49' W 122°19'0 0.0
2017-Aug-12 19:00N 37°49' W 122°19'0 0.9
2017-Aug-12 18:30N 37°49' W 122°19'4 8.1
2017-Aug-12 18:00N 37°51' W 122°23'4 7.3
2017-Aug-12 17:26N 37°55' W 122°25'0 0.2
2017-Aug-12 16:58N 37°55' W 122°25'2 3.5
2017-Aug-12 16:30N 37°54' W 122°25'4 9.1
2017-Aug-12 16:00N 37°50' W 122°22'3 5.3
2017-Aug-12 15:30N 37°49' W 122°19'0 0.0
2017-Aug-12 15:00N 37°49' W 122°19'0 0.0
2017-Aug-12 14:30N 37°49' W 122°19'0 0.7
2017-Aug-12 14:00N 37°49' W 122°19'1 2.5
2017-Aug-12 13:31N 37°48' W 122°19'1 1.2
2017-Aug-12 13:01N 37°48' W 122°20'2 3.3
2017-Aug-12 12:31N 37°48' W 122°22'3 5.7
2017-Aug-12 12:00N 37°49' W 122°19'0 0.0
2017-Aug-12 11:30N 37°49' W 122°19'0 0.0
2017-Aug-12 11:00N 37°49' W 122°19'0 0.0
2017-Aug-12 10:30N 37°49' W 122°19'0 0.0
2017-Aug-12 10:00N 37°49' W 122°19'0 0.0
2017-Aug-12 09:30N 37°49' W 122°19'0 0.0
2017-Aug-12 09:00N 37°49' W 122°19'0 0.0
2017-Aug-12 08:30N 37°49' W 122°19'0 0.0
2017-Aug-12 08:00N 37°49' W 122°19'0 0.0
2017-Aug-12 07:31N 37°49' W 122°19'0 0.0
2017-Aug-12 07:01N 37°49' W 122°19'0 0.0
2017-Aug-12 06:30N 37°49' W 122°19'0 0.0
2017-Aug-12 06:00N 37°49' W 122°19'0 0.0
2017-Aug-12 05:30N 37°49' W 122°19'0 0.0
2017-Aug-12 05:00N 37°49' W 122°19'0 0.0
2017-Aug-12 04:30N 37°49' W 122°19'0 0.0
2017-Aug-12 04:00N 37°49' W 122°19'0 0.0
2017-Aug-12 03:30N 37°49' W 122°19'0 0.0
2017-Aug-12 03:00N 37°49' W 122°19'0 0.0
2017-Aug-12 02:30N 37°49' W 122°19'0 0.4
2017-Aug-12 02:01N 37°49' W 122°19'3 6.4
2017-Aug-12 01:30N 37°51' W 122°23'4 8.0
2017-Aug-12 01:00N 37°54' W 122°24'2 3.1
2017-Aug-12 00:25N 37°55' W 122°22'0 0.0
2017-Aug-11 23:59N 37°55' W 122°22'0 1.0
2017-Aug-11 23:30N 37°55' W 122°22'1 1.2
2017-Aug-11 23:00N 37°54' W 122°22'2 4.8
2017-Aug-11 22:29N 37°55' W 122°25'2 4.1
2017-Aug-11 22:01N 37°53' W 122°25'3 4.3
2017-Aug-11 21:23N 37°56' W 122°25'0 0.4
2017-Aug-11 20:53N 37°56' W 122°25'0 0.1
2017-Aug-11 19:22N 37°55' W 122°25'2 5.3
2017-Aug-11 18:59N 37°53' W 122°25'4 8.9
2017-Aug-11 18:31N 37°50' W 122°22'2 4.9
2017-Aug-11 18:00N 37°49' W 122°19'0 0.0
2017-Aug-11 17:30N 37°49' W 122°19'0 0.0
2017-Aug-11 17:01N 37°49' W 122°19'0 0.0
2017-Aug-11 16:31N 37°49' W 122°19'0 0.0
2017-Aug-11 16:00N 37°49' W 122°19'0 0.0
2017-Aug-11 15:31N 37°49' W 122°19'0 0.0
2017-Aug-11 15:01N 37°49' W 122°19'0 0.0
2017-Aug-11 14:00N 37°49' W 122°19'0 0.0
2017-Aug-11 13:31N 37°49' W 122°19'0 0.0
2017-Aug-11 13:01N 37°49' W 122°19'0 0.0
2017-Aug-11 12:30N 37°49' W 122°19'0 0.0
2017-Aug-11 12:00N 37°49' W 122°19'0 0.0
2017-Aug-11 11:30N 37°49' W 122°19'2 3.1
2017-Aug-11 11:01N 37°48' W 122°19'1 2.2
2017-Aug-11 10:30N 37°48' W 122°21'2 3.6
2017-Aug-11 10:00N 37°49' W 122°19'0 0.0
2017-Aug-11 09:30N 37°49' W 122°19'0 0.0
2017-Aug-11 09:00N 37°49' W 122°19'0 0.0
2017-Aug-11 08:30N 37°49' W 122°19'0 0.0
2017-Aug-11 08:01N 37°49' W 122°19'0 0.0
2017-Aug-11 07:31N 37°49' W 122°19'0 0.0
2017-Aug-11 07:00N 37°49' W 122°19'0 0.0
2017-Aug-11 06:31N 37°49' W 122°19'0 0.0
2017-Aug-11 06:00N 37°49' W 122°19'0 0.0
2017-Aug-11 05:30N 37°49' W 122°19'0 0.0
2017-Aug-11 05:00N 37°49' W 122°19'0 0.0
2017-Aug-11 04:30N 37°49' W 122°19'0 0.0
2017-Aug-11 04:00N 37°49' W 122°19'0 0.0
2017-Aug-11 03:30N 37°49' W 122°19'0 0.0
2017-Aug-11 03:00N 37°49' W 122°19'0 0.0
2017-Aug-11 02:30N 37°49' W 122°19'0 0.0
2017-Aug-11 02:01N 37°49' W 122°19'0 0.0
2017-Aug-11 01:31N 37°49' W 122°19'3 5.8
2017-Aug-11 01:00N 37°47' W 122°21'3 5.4
2017-Aug-11 00:30N 37°45' W 122°23'0 0.0
2017-Aug-11 00:00N 37°45' W 122°23'0 0.0
2017-Aug-10 23:31N 37°45' W 122°23'0 0.0
2017-Aug-10 23:00N 37°45' W 122°23'0 0.0
2017-Aug-10 22:31N 37°45' W 122°23'0 0.0
2017-Aug-10 22:01N 37°45' W 122°23'0 0.0
2017-Aug-10 21:31N 37°45' W 122°23'0 0.8
2017-Aug-10 21:00N 37°45' W 122°22'2 4.1
2017-Aug-10 20:31N 37°47' W 122°21'2 3.1
2017-Aug-10 20:01N 37°46' W 122°19'0 0.8
2017-Aug-10 19:30N 37°46' W 122°18'0 0.0
2017-Aug-10 19:00N 37°46' W 122°18'0 0.3
2017-Aug-10 18:31N 37°46' W 122°18'0 0.0
2017-Aug-10 18:01N 37°46' W 122°18'0 0.0
2017-Aug-10 17:30N 37°46' W 122°18'0 0.0
2017-Aug-10 17:00N 37°46' W 122°18'0 0.2
2017-Aug-10 16:30N 37°47' W 122°18'0 0.3
2017-Aug-10 16:01N 37°46' W 122°18'2 4.8
2017-Aug-10 15:30N 37°49' W 122°20'0 0.3
2017-Aug-10 15:00N 37°49' W 122°19'1 2.0
2017-Aug-10 14:31N 37°48' W 122°21'2 3.0
2017-Aug-10 14:00N 37°49' W 122°23'1 2.4
2017-Aug-10 13:30N 37°48' W 122°21'0 1.0
2017-Aug-10 13:01N 37°48' W 122°21'0 0.0
2017-Aug-10 12:30N 37°48' W 122°21'1 2.1
2017-Aug-10 12:01N 37°48' W 122°19'1 2.2
2017-Aug-10 11:30N 37°49' W 122°19'1 1.1
2017-Aug-10 11:00N 37°49' W 122°19'0 0.0
2017-Aug-10 10:30N 37°49' W 122°19'0 0.0
2017-Aug-10 10:00N 37°49' W 122°19'0 0.0
2017-Aug-10 09:30N 37°49' W 122°19'0 0.0
2017-Aug-10 09:00N 37°49' W 122°19'0 0.0
2017-Aug-10 08:30N 37°49' W 122°19'0 0.0
2017-Aug-10 08:00N 37°49' W 122°19'0 0.0
2017-Aug-10 07:30N 37°49' W 122°19'0 0.0
2017-Aug-10 07:00N 37°49' W 122°19'0 0.0
2017-Aug-10 06:30N 37°49' W 122°19'0 0.0
2017-Aug-10 06:00N 37°49' W 122°19'0 0.0
2017-Aug-10 05:30N 37°49' W 122°19'0 0.0
2017-Aug-10 05:00N 37°49' W 122°19'0 0.0
2017-Aug-10 04:30N 37°49' W 122°19'0 0.0
2017-Aug-10 04:00N 37°49' W 122°19'0 0.0
2017-Aug-10 03:30N 37°49' W 122°19'1 1.9
2017-Aug-10 03:01N 37°49' W 122°20'1 2.8
2017-Aug-10 02:31N 37°48' W 122°19'1 1.1
2017-Aug-10 02:00N 37°48' W 122°18'0 0.1
2017-Aug-10 01:30N 37°48' W 122°18'2 3.9
2017-Aug-10 01:00N 37°48' W 122°20'1 1.7
2017-Aug-10 00:31N 37°48' W 122°19'1 2.5
2017-Aug-10 00:01N 37°48' W 122°18'1 1.3
2017-Aug-09 23:31N 37°48' W 122°19'3 5.8
2017-Aug-09 23:00N 37°48' W 122°22'0 0.7
2017-Aug-09 22:31N 37°48' W 122°22'3 6.0
2017-Aug-09 22:01N 37°49' W 122°19'0 0.0
2017-Aug-09 21:30N 37°49' W 122°19'0 0.0
2017-Aug-09 21:00N 37°49' W 122°19'0 0.0
2017-Aug-09 20:30N 37°49' W 122°19'0 0.0
2017-Aug-09 20:00N 37°49' W 122°19'0 0.0
2017-Aug-09 19:30N 37°49' W 122°19'0 0.0
2017-Aug-09 19:00N 37°49' W 122°19'0 0.0
2017-Aug-09 18:30N 37°49' W 122°19'0 0.0
2017-Aug-09 18:00N 37°49' W 122°19'0 0.0
2017-Aug-09 17:30N 37°49' W 122°19'0 0.0
2017-Aug-09 17:00N 37°49' W 122°19'0 0.0
2017-Aug-09 16:30N 37°49' W 122°19'0 0.0
2017-Aug-09 16:00N 37°49' W 122°19'0 0.0
2017-Aug-09 15:30N 37°49' W 122°19'0 0.0
2017-Aug-09 15:00N 37°49' W 122°19'0 0.0
2017-Aug-09 14:30N 37°49' W 122°19'0 0.0
2017-Aug-09 14:00N 37°49' W 122°19'0 0.0
2017-Aug-09 13:30N 37°49' W 122°19'0 0.0
2017-Aug-09 13:00N 37°49' W 122°19'0 0.0
2017-Aug-09 12:30N 37°49' W 122°19'0 0.0
2017-Aug-09 12:00N 37°49' W 122°19'0 0.0
2017-Aug-09 11:31N 37°49' W 122°19'0 0.0
2017-Aug-09 11:00N 37°49' W 122°19'0 0.0
2017-Aug-09 10:30N 37°49' W 122°19'0 0.0
2017-Aug-09 10:00N 37°49' W 122°19'0 0.0
2017-Aug-09 09:31N 37°49' W 122°19'0 0.0
2017-Aug-09 09:00N 37°49' W 122°19'0 0.0
2017-Aug-09 08:30N 37°49' W 122°19'0 0.0
2017-Aug-09 08:01N 37°49' W 122°19'0 0.0
2017-Aug-09 07:31N 37°49' W 122°19'0 0.0
2017-Aug-09 07:00N 37°49' W 122°19'0 0.0
2017-Aug-09 06:30N 37°49' W 122°19'0 0.0
2017-Aug-09 06:00N 37°49' W 122°19'0 0.0
2017-Aug-09 05:30N 37°49' W 122°19'0 0.0
2017-Aug-09 05:01N 37°49' W 122°19'0 0.0
2017-Aug-09 04:30N 37°49' W 122°19'0 0.0
2017-Aug-09 04:00N 37°49' W 122°19'2 4.4
2017-Aug-09 03:30N 37°49' W 122°22'510.6
2017-Aug-09 03:00N 37°54' W 122°25'2 4.9
2017-Aug-09 02:30N 37°54' W 122°22'1 1.6
2017-Aug-09 02:00N 37°54' W 122°23'2 4.1
2017-Aug-09 01:30N 37°53' W 122°25'2 3.6
2017-Aug-09 01:00N 37°54' W 122°23'0 0.0
2017-Aug-09 00:30N 37°54' W 122°23'1 2.5
2017-Aug-09 00:00N 37°55' W 122°22'1 1.0
2017-Aug-08 23:26N 37°54' W 122°22'3 5.8
2017-Aug-08 22:55N 37°55' W 122°25'2 6.0
2017-Aug-08 22:30N 37°53' W 122°25'2 4.2
2017-Aug-08 22:00N 37°51' W 122°23'4 7.7
2017-Aug-08 21:30N 37°49' W 122°19'1 1.5
2017-Aug-08 21:00N 37°49' W 122°19'2 3.6
2017-Aug-08 20:31N 37°48' W 122°21'2 4.4
2017-Aug-08 20:01N 37°48' W 122°18'1 2.7
2017-Aug-08 19:31N 37°48' W 122°20'2 3.4
2017-Aug-08 19:00N 37°48' W 122°22'1 2.1
2017-Aug-08 18:30N 37°48' W 122°21'2 4.2
2017-Aug-08 18:00N 37°48' W 122°18'0 0.4
2017-Aug-08 17:30N 37°48' W 122°18'0 0.0
2017-Aug-08 17:00N 37°48' W 122°18'1 2.7
2017-Aug-08 16:30N 37°48' W 122°19'2 3.3
2017-Aug-08 16:00N 37°49' W 122°19'0 0.0
2017-Aug-08 15:30N 37°49' W 122°19'0 0.0
2017-Aug-08 15:00N 37°49' W 122°19'0 0.0
2017-Aug-08 14:30N 37°49' W 122°19'0 0.0
2017-Aug-08 14:00N 37°49' W 122°19'0 0.0
2017-Aug-08 13:30N 37°49' W 122°19'0 0.0
2017-Aug-08 13:00N 37°49' W 122°19'0 0.0
2017-Aug-08 12:30N 37°49' W 122°19'0 0.0
2017-Aug-08 12:00N 37°49' W 122°19'0 0.0
2017-Aug-08 11:30N 37°49' W 122°19'0 0.0
2017-Aug-08 11:00N 37°49' W 122°19'0 0.0
2017-Aug-08 10:31N 37°49' W 122°19'  

Dump ship's entire track history